createdAt,value
2018-04-27T00:00:41.061Z,7.47
2018-04-27T00:03:07.513Z,6.60
2018-04-27T00:05:33.879Z,6.87
2018-04-27T00:08:00.396Z,7.43
2018-04-27T00:10:26.864Z,7.17
2018-04-27T00:12:53.247Z,7.00
2018-04-27T00:15:19.637Z,7.20
2018-04-27T00:17:46.161Z,7.20
2018-04-27T00:20:12.723Z,7.20
2018-04-27T00:22:39.188Z,7.00
2018-04-27T00:25:05.657Z,7.93
2018-04-27T00:27:32.078Z,7.10
2018-04-27T00:29:58.518Z,7.40
2018-04-27T00:32:24.932Z,8.10
2018-04-27T00:34:51.370Z,7.13
2018-04-27T00:37:17.892Z,7.30
2018-04-27T00:39:44.390Z,7.30
2018-04-27T00:42:10.808Z,7.40
2018-04-27T00:44:37.305Z,7.93
2018-04-27T00:47:03.725Z,7.50
2018-04-27T00:49:30.191Z,7.37
2018-04-27T00:51:56.715Z,7.37
2018-04-27T00:54:23.142Z,7.63
2018-04-27T00:56:49.597Z,6.80
2018-04-27T00:59:16.079Z,6.93
2018-04-27T01:01:42.481Z,6.97
2018-04-27T01:04:08.897Z,6.97
2018-04-27T01:06:35.322Z,6.50
2018-04-27T01:09:01.747Z,7.43
2018-04-27T01:11:28.158Z,7.00
2018-04-27T01:13:54.564Z,7.40
2018-04-27T01:16:20.982Z,7.70
2018-04-27T01:18:47.365Z,7.67
2018-04-27T01:21:13.847Z,7.50
2018-04-27T01:23:40.357Z,7.00
2018-04-27T01:26:06.840Z,6.53
2018-04-27T01:28:33.410Z,7.43
2018-04-27T01:30:59.820Z,7.17
2018-04-27T01:33:26.255Z,7.53
2018-04-27T01:35:52.728Z,7.40
2018-04-27T01:38:19.246Z,7.57
2018-04-27T01:40:45.711Z,7.87
2018-04-27T01:43:12.212Z,7.70
2018-04-27T01:45:38.609Z,7.13
2018-04-27T01:48:05.005Z,7.23
2018-04-27T01:50:31.415Z,7.30
2018-04-27T01:52:57.779Z,7.63
2018-04-27T01:55:24.159Z,8.47
2018-04-27T01:57:50.703Z,7.70
2018-04-27T02:00:17.152Z,6.67
2018-04-27T02:02:43.610Z,6.87
2018-04-27T02:05:10.064Z,7.37
2018-04-27T02:07:36.530Z,7.37
2018-04-27T02:10:02.921Z,7.67
2018-04-27T02:12:29.347Z,7.20
2018-04-27T02:14:55.805Z,7.03
2018-04-27T02:17:22.199Z,7.40
2018-04-27T02:19:48.657Z,6.93
2018-04-27T02:22:15.026Z,7.80
2018-04-27T02:24:41.348Z,7.67
2018-04-27T02:27:07.736Z,8.30
2018-04-27T02:29:34.130Z,7.83
2018-04-27T02:32:00.545Z,7.40
2018-04-27T02:34:26.951Z,6.90
2018-04-27T02:36:53.329Z,7.90
2018-04-27T02:39:19.764Z,7.17
2018-04-27T02:41:46.094Z,7.47
2018-04-27T02:44:12.500Z,8.00
2018-04-27T02:46:38.833Z,8.03
2018-04-27T02:49:05.248Z,7.80
2018-04-27T02:51:31.578Z,7.33
2018-04-27T02:53:58.085Z,8.97
2018-04-27T02:56:24.417Z,8.10
2018-04-27T02:58:50.804Z,7.80
2018-04-27T03:01:17.178Z,7.73
2018-04-27T03:03:43.549Z,8.27
2018-04-27T03:06:09.864Z,8.13
2018-04-27T03:08:36.281Z,7.53
2018-04-27T03:11:02.733Z,8.13
2018-04-27T03:13:29.068Z,8.23
2018-04-27T03:15:55.413Z,8.23
2018-04-27T03:18:21.799Z,8.10
2018-04-27T03:20:48.197Z,8.80
2018-04-27T03:23:14.547Z,8.03
2018-04-27T03:25:40.981Z,7.40
2018-04-27T03:28:07.436Z,8.77
2018-04-27T03:30:33.829Z,8.37
2018-04-27T03:33:00.245Z,8.63
2018-04-27T03:35:26.604Z,8.07
2018-04-27T03:37:53.046Z,7.80
2018-04-27T03:40:19.480Z,8.47
2018-04-27T03:42:45.864Z,7.70
2018-04-27T03:45:12.212Z,8.20
2018-04-27T03:47:38.732Z,7.70
2018-04-27T03:50:05.134Z,8.53
2018-04-27T03:52:31.558Z,8.80
2018-04-27T03:54:57.968Z,8.43
2018-04-27T03:57:24.309Z,7.47
2018-04-27T04:00:02.824Z,8.67
2018-04-27T04:02:41.409Z,7.27
2018-04-27T04:05:18.956Z,7.17
2018-04-27T04:07:46.422Z,8.10
2018-04-27T04:10:12.847Z,7.70
2018-04-27T04:12:39.347Z,7.67
2018-04-27T04:15:06.138Z,7.80
2018-04-27T04:17:32.591Z,7.13
2018-04-27T04:19:59.000Z,7.73
2018-04-27T04:22:25.362Z,6.97
2018-04-27T04:24:51.716Z,8.10
2018-04-27T04:27:18.316Z,7.60
2018-04-27T04:29:44.781Z,8.13
2018-04-27T04:32:11.147Z,7.50
2018-04-27T04:34:37.701Z,7.00
2018-04-27T04:37:04.125Z,7.43
2018-04-27T04:39:30.602Z,6.83
2018-04-27T04:41:57.000Z,7.17
2018-04-27T04:44:23.366Z,7.60
2018-04-27T04:46:49.687Z,6.80
2018-04-27T04:49:16.234Z,6.37
2018-04-27T04:51:42.648Z,7.03
2018-04-27T04:54:09.022Z,6.63
2018-04-27T04:56:35.529Z,7.50
2018-04-27T04:59:01.995Z,7.27
2018-04-27T05:01:28.383Z,8.23
2018-04-27T05:03:54.858Z,7.67
2018-04-27T05:06:21.323Z,7.73
2018-04-27T05:08:47.805Z,8.73
2018-04-27T05:11:14.329Z,7.70
2018-04-27T05:13:40.863Z,8.00
2018-04-27T05:16:07.295Z,7.97
2018-04-27T05:18:49.605Z,8.40
2018-04-27T05:21:16.044Z,8.63
2018-04-27T05:23:42.426Z,8.57
2018-04-27T05:26:08.966Z,8.00
2018-04-27T05:28:36.379Z,9.37
2018-04-27T05:31:14.988Z,9.33
2018-04-27T05:33:41.418Z,8.50
2018-04-27T05:36:07.781Z,10.50
2018-04-27T05:38:34.392Z,10.37
2018-04-27T05:41:00.895Z,10.47
2018-04-27T05:43:27.400Z,8.83
2018-04-27T05:45:53.921Z,9.97
2018-04-27T05:48:20.349Z,8.87
2018-04-27T05:50:46.888Z,8.80
2018-04-27T05:53:13.414Z,9.40
2018-04-27T05:55:39.899Z,8.93
2018-04-27T05:58:08.984Z,8.73
2018-04-27T06:00:35.544Z,10.13
2018-04-27T06:03:01.958Z,10.03
2018-04-27T06:05:28.407Z,7.80
2018-04-27T06:07:56.015Z,6.43
2018-04-27T06:10:22.526Z,6.97
2018-04-27T06:12:48.909Z,7.50
2018-04-27T06:15:15.323Z,7.07
2018-04-27T06:17:41.672Z,7.17
2018-04-27T06:20:08.038Z,7.00
2018-04-27T06:22:34.517Z,6.83
2018-04-27T06:25:01.645Z,7.83
2018-04-27T06:27:28.395Z,7.77
2018-04-27T06:29:54.930Z,8.10
2018-04-27T06:32:21.441Z,6.93
2018-04-27T06:34:47.821Z,7.27
2018-04-27T06:37:14.270Z,8.27
2018-04-27T06:39:40.738Z,7.60
2018-04-27T06:42:07.196Z,7.17
2018-04-27T06:44:33.746Z,7.67
2018-04-27T06:47:00.241Z,7.70
2018-04-27T06:49:26.705Z,7.60
2018-04-27T06:51:53.418Z,7.87
2018-04-27T06:54:19.865Z,7.87
2018-04-27T06:56:46.274Z,7.97
2018-04-27T06:59:12.898Z,8.10
2018-04-27T07:01:39.317Z,8.60
2018-04-27T07:04:05.802Z,7.77
2018-04-27T07:06:32.551Z,8.00
2018-04-27T07:08:58.978Z,7.87
2018-04-27T07:11:25.437Z,8.20
2018-04-27T07:13:51.885Z,8.03
2018-04-27T07:16:18.402Z,8.47
2018-04-27T07:18:44.802Z,7.67
2018-04-27T07:21:11.225Z,7.60
2018-04-27T07:23:37.620Z,7.87
2018-04-27T07:26:04.013Z,7.77
2018-04-27T07:28:30.721Z,7.20
2018-04-27T07:30:57.216Z,7.50
2018-04-27T07:33:23.606Z,7.63
2018-04-27T07:35:49.992Z,7.70
2018-04-27T07:38:16.499Z,8.37
2018-04-27T07:40:42.869Z,7.63
2018-04-27T07:43:09.357Z,7.10
2018-04-27T07:45:35.765Z,7.97
2018-04-27T07:48:02.241Z,7.53
2018-04-27T07:50:28.659Z,8.40
2018-04-27T07:52:55.067Z,7.63
2018-04-27T07:55:21.513Z,7.60
2018-04-27T07:57:48.057Z,9.10
2018-04-27T08:00:14.644Z,7.33
2018-04-27T08:02:41.197Z,8.43
2018-04-27T08:05:07.814Z,7.83
2018-04-27T08:07:34.284Z,7.20
2018-04-27T08:10:00.921Z,6.80
2018-04-27T08:12:27.417Z,7.17
2018-04-27T08:14:53.791Z,9.27
2018-04-27T08:17:20.286Z,7.13
2018-04-27T08:19:46.698Z,7.27
2018-04-27T08:22:13.077Z,7.90
2018-04-27T08:24:39.632Z,7.70
2018-04-27T08:27:06.176Z,7.13
2018-04-27T08:29:32.709Z,7.27
2018-04-27T08:31:59.242Z,7.10
2018-04-27T08:34:25.720Z,6.57
2018-04-27T08:36:52.124Z,8.10
2018-04-27T08:39:18.645Z,8.13
2018-04-27T08:41:45.116Z,7.10
2018-04-27T08:44:12.047Z,7.17
2018-04-27T08:46:38.628Z,7.63
2018-04-27T08:49:05.263Z,6.73
2018-04-27T08:51:31.782Z,7.07
2018-04-27T08:53:58.274Z,6.67
2018-04-27T08:56:24.771Z,6.70
2018-04-27T08:58:51.364Z,7.50
2018-04-27T09:01:17.850Z,7.43
2018-04-27T09:03:44.732Z,7.03
2018-04-27T09:06:11.546Z,6.90
2018-04-27T09:08:38.144Z,6.77
2018-04-27T09:11:04.548Z,6.93
2018-04-27T09:13:31.098Z,7.77
2018-04-27T09:15:57.595Z,6.73
2018-04-27T09:18:24.214Z,7.30
2018-04-27T09:20:50.591Z,6.77
2018-04-27T09:23:17.047Z,7.67
2018-04-27T09:25:43.523Z,7.20
2018-04-27T09:28:09.919Z,7.63
2018-04-27T09:30:36.283Z,7.97
2018-04-27T09:33:02.709Z,8.50
2018-04-27T09:35:29.268Z,7.30
2018-04-27T09:37:55.912Z,8.30
2018-04-27T09:40:22.454Z,7.30
2018-04-27T09:42:48.901Z,7.50
2018-04-27T09:45:15.291Z,6.63
2018-04-27T09:47:41.774Z,6.63
2018-04-27T09:50:08.387Z,7.17
2018-04-27T09:52:34.773Z,7.40
2018-04-27T09:55:01.264Z,6.93
2018-04-27T09:57:27.778Z,7.13
2018-04-27T09:59:54.262Z,7.47
2018-04-27T10:02:21.222Z,6.77
2018-04-27T10:04:47.644Z,7.13
2018-04-27T10:07:14.114Z,11.33
2018-04-27T10:09:40.650Z,6.83
2018-04-27T10:12:07.164Z,6.97
2018-04-27T10:14:33.600Z,6.83
2018-04-27T10:17:00.064Z,7.13
2018-04-27T10:19:26.653Z,6.83
2018-04-27T10:21:53.129Z,7.00
2018-04-27T10:24:19.627Z,6.47
2018-04-27T10:26:46.087Z,7.30
2018-04-27T10:29:12.589Z,7.23
2018-04-27T10:31:39.037Z,7.30
2018-04-27T10:34:05.434Z,7.60
2018-04-27T10:36:32.016Z,7.53
2018-04-27T10:38:58.539Z,6.37
2018-04-27T10:41:26.007Z,6.87
2018-04-27T10:43:53.407Z,7.27
2018-04-27T10:46:20.049Z,6.43
2018-04-27T10:48:46.647Z,6.70
2018-04-27T10:51:13.142Z,6.33
2018-04-27T10:53:39.652Z,6.83
2018-04-27T10:56:06.169Z,7.07
2018-04-27T10:58:32.694Z,7.23
2018-04-27T11:00:59.289Z,6.47
2018-04-27T11:03:25.979Z,6.93
2018-04-27T11:05:52.472Z,15.00
2018-04-27T11:08:18.984Z,12.93
2018-04-27T11:10:45.484Z,7.37
2018-04-27T11:13:13.083Z,7.40
2018-04-27T11:15:40.589Z,7.03
2018-04-27T11:18:07.081Z,6.47
2018-04-27T11:20:33.640Z,7.30
2018-04-27T11:23:00.141Z,7.07
2018-04-27T11:25:26.618Z,6.87
2018-04-27T11:27:53.207Z,7.07
2018-04-27T11:30:19.805Z,8.03
2018-04-27T11:32:46.304Z,7.00
2018-04-27T11:35:12.855Z,7.37
2018-04-27T11:37:39.351Z,7.13
2018-04-27T11:40:05.852Z,7.37
2018-04-27T11:42:32.358Z,7.63
2018-04-27T11:44:58.913Z,7.70
2018-04-27T11:47:25.501Z,7.17
2018-04-27T11:49:52.072Z,6.83
2018-04-27T11:52:18.577Z,7.43
2018-04-27T11:54:45.764Z,7.27
2018-04-27T11:57:12.317Z,7.83
2018-04-27T11:59:38.856Z,7.13
2018-04-27T12:02:05.340Z,6.70
2018-04-27T12:04:32.229Z,6.13
2018-04-27T12:06:58.835Z,6.23
2018-04-27T12:09:25.347Z,7.43
2018-04-27T12:11:52.115Z,6.60
2018-04-27T12:14:18.838Z,7.37
2018-04-27T12:16:45.393Z,7.70
2018-04-27T12:19:11.833Z,6.60
2018-04-27T12:21:38.415Z,6.50
2018-04-27T12:24:04.927Z,6.70
2018-04-27T12:26:31.418Z,7.23
2018-04-27T12:28:58.678Z,8.30
2018-04-27T12:31:25.589Z,6.97
2018-04-27T12:33:52.079Z,6.90
2018-04-27T12:36:18.556Z,6.73
2018-04-27T12:38:45.286Z,6.80
2018-04-27T12:41:12.132Z,7.00
2018-04-27T12:43:38.742Z,6.50
2018-04-27T12:46:05.213Z,6.57
2018-04-27T12:48:31.800Z,6.80
2018-04-27T12:50:58.320Z,6.67
2018-04-27T12:53:24.776Z,6.30
2018-04-27T12:55:51.266Z,6.82
2018-04-27T12:58:18.007Z,6.28
2018-04-27T13:00:44.600Z,6.78
2018-04-27T13:03:11.085Z,7.00
2018-04-27T13:05:38.097Z,7.10
2018-04-27T13:08:05.078Z,7.00
2018-04-27T13:10:31.745Z,6.83
2018-04-27T13:12:58.358Z,6.63
2018-04-27T13:15:25.317Z,8.23
2018-04-27T13:17:51.748Z,7.53
2018-04-27T13:20:18.292Z,9.30
2018-04-27T13:22:44.714Z,6.73
2018-04-27T13:25:11.233Z,7.03
2018-04-27T13:27:37.712Z,7.37
2018-04-27T13:30:04.484Z,7.05
2018-04-27T13:32:30.980Z,6.85
2018-04-27T13:34:57.480Z,6.57
2018-04-27T13:37:23.939Z,7.50
2018-04-27T13:39:50.325Z,9.57
2018-04-27T13:42:16.754Z,7.83
2018-04-27T13:44:43.212Z,7.40
2018-04-27T13:47:09.567Z,6.23
2018-04-27T13:49:36.324Z,7.17
2018-04-27T13:52:02.854Z,6.57
2018-04-27T13:54:29.273Z,7.00
2018-04-27T13:56:55.737Z,7.73
2018-04-27T13:59:22.197Z,7.37
2018-04-27T14:01:48.666Z,7.57
2018-04-27T14:04:15.116Z,6.50
2018-04-27T14:06:41.738Z,6.20
2018-04-27T14:09:08.264Z,6.07
2018-04-27T14:11:34.705Z,6.47
2018-04-27T14:14:01.115Z,6.20
2018-04-27T14:16:27.581Z,5.90
2018-04-27T14:18:53.996Z,5.83
2018-04-27T14:21:20.796Z,6.93
2018-04-27T14:23:47.236Z,6.37
2018-04-27T14:26:13.708Z,5.93
2018-04-27T14:28:40.425Z,6.70
2018-04-27T14:31:06.848Z,5.73
2018-04-27T14:33:34.252Z,7.00
2018-04-27T14:36:00.752Z,7.17
2018-04-27T14:38:27.139Z,6.43
2018-04-27T14:40:53.911Z,6.50
2018-04-27T14:43:21.308Z,6.77
2018-04-27T14:45:47.674Z,5.80
2018-04-27T14:48:15.815Z,6.30
2018-04-27T14:50:42.309Z,6.70
2018-04-27T14:53:08.665Z,7.07
2018-04-27T14:55:35.038Z,6.60
2018-04-27T14:58:01.505Z,7.07
2018-04-27T15:00:29.004Z,6.83
2018-04-27T15:02:55.613Z,6.27
2018-04-27T15:05:22.082Z,6.33
2018-04-27T15:07:48.481Z,6.70
2018-04-27T15:10:15.008Z,6.97
2018-04-27T15:12:41.505Z,7.50
2018-04-27T15:15:08.088Z,7.33
2018-04-27T15:17:34.522Z,6.73
2018-04-27T15:20:01.010Z,7.20
2018-04-27T15:22:27.555Z,6.73
2018-04-27T15:24:53.926Z,6.57
2018-04-27T15:27:20.392Z,7.07
2018-04-27T15:29:47.788Z,7.10
2018-04-27T15:32:14.217Z,7.03
2018-04-27T15:34:40.721Z,7.40
2018-04-27T15:37:07.142Z,6.67
2018-04-27T15:39:33.656Z,7.57
2018-04-27T15:42:00.063Z,7.57
2018-04-27T15:44:26.554Z,7.63
2018-04-27T15:46:53.006Z,7.43
2018-04-27T15:49:19.892Z,7.43
2018-04-27T15:51:46.361Z,7.53
2018-04-27T15:54:12.797Z,7.33
2018-04-27T15:56:39.263Z,7.33
2018-04-27T15:59:05.878Z,6.97
2018-04-27T16:01:32.365Z,7.03
2018-04-27T16:03:59.738Z,7.13
2018-04-27T16:06:26.233Z,7.57
2018-04-27T16:08:52.773Z,6.93
2018-04-27T16:11:19.801Z,7.50
2018-04-27T16:13:53.413Z,7.80
2018-04-27T16:16:21.528Z,7.10
2018-04-27T16:18:47.970Z,7.50
2018-04-27T16:21:14.559Z,7.07
2018-04-27T16:23:43.909Z,7.47
2018-04-27T16:26:10.402Z,7.43
2018-04-27T16:28:36.814Z,8.00
2018-04-27T16:31:03.443Z,6.73
2018-04-27T16:33:29.919Z,7.63
2018-04-27T16:35:56.450Z,7.43
2018-04-27T16:38:22.967Z,6.73
2018-04-27T16:40:49.918Z,6.70
2018-04-27T16:43:16.441Z,6.07
2018-04-27T16:45:43.053Z,5.93
2018-04-27T16:48:09.609Z,6.00
2018-04-27T16:50:36.228Z,5.90
2018-04-27T16:53:02.767Z,5.80
2018-04-27T16:55:29.234Z,5.93
2018-04-27T16:57:55.641Z,5.07
2018-04-27T17:00:22.186Z,6.97
2018-04-27T17:02:48.752Z,5.70
2018-04-27T17:05:15.252Z,5.33
2018-04-27T17:07:41.782Z,5.40
2018-04-27T17:10:08.592Z,5.53
2018-04-27T17:12:35.288Z,5.77
2018-04-27T17:15:01.862Z,5.53
2018-04-27T17:17:28.637Z,6.27
2018-04-27T17:19:55.291Z,5.50
2018-04-27T17:22:22.272Z,5.87
2018-04-27T17:24:48.797Z,6.23
2018-04-27T17:27:15.305Z,6.37
2018-04-27T17:29:41.882Z,6.07
2018-04-27T17:32:08.628Z,6.17
2018-04-27T17:34:35.442Z,6.53
2018-04-27T17:37:02.171Z,6.53
2018-04-27T17:39:29.645Z,5.80
2018-04-27T17:41:56.314Z,6.10
2018-04-27T17:44:22.828Z,6.23
2018-04-27T17:46:49.444Z,6.43
2018-04-27T17:49:16.143Z,6.23
2018-04-27T17:51:42.667Z,5.90
2018-04-27T17:54:09.061Z,6.13
2018-04-27T17:56:35.499Z,6.57
2018-04-27T17:59:02.003Z,5.70
2018-04-27T18:01:28.448Z,6.20
2018-04-27T18:03:54.936Z,5.50
2018-04-27T18:06:21.402Z,5.93
2018-04-27T18:08:47.921Z,6.13
2018-04-27T18:11:15.558Z,7.10
2018-04-27T18:13:42.139Z,6.27
2018-04-27T18:16:08.618Z,6.37
2018-04-27T18:18:35.177Z,6.40
2018-04-27T18:21:01.985Z,5.60
2018-04-27T18:23:28.640Z,7.03
2018-04-27T18:25:55.918Z,6.63
2018-04-27T18:28:22.690Z,7.30
2018-04-27T18:30:49.515Z,7.03
2018-04-27T18:33:16.278Z,6.37
2018-04-27T18:35:43.819Z,6.43
2018-04-27T18:38:10.419Z,6.57
2018-04-27T18:40:37.714Z,5.93
2018-04-27T18:43:04.859Z,6.90
2018-04-27T18:45:33.610Z,6.63
2018-04-27T18:48:00.931Z,6.53
2018-04-27T18:50:28.133Z,7.13
2018-04-27T18:52:55.407Z,6.10
2018-04-27T18:55:22.256Z,6.60
2018-04-27T18:57:49.324Z,6.50
2018-04-27T19:00:16.404Z,7.00
2018-04-27T19:02:44.510Z,6.97
2018-04-27T19:05:11.513Z,6.73
2018-04-27T19:07:38.564Z,6.43
2018-04-27T19:10:05.515Z,7.40
2018-04-27T19:12:32.733Z,6.37
2018-04-27T19:15:00.002Z,6.23
2018-04-27T19:17:35.307Z,8.10
2018-04-27T19:20:12.504Z,6.90
2018-04-27T19:22:41.369Z,6.77
2018-04-27T19:25:08.148Z,7.60
2018-04-27T19:27:34.941Z,6.90
2018-04-27T19:30:01.920Z,6.73
2018-04-27T19:32:29.103Z,6.87
2018-04-27T19:34:56.355Z,6.97
2018-04-27T19:37:23.476Z,7.13
2018-04-27T19:39:50.657Z,7.10
2018-04-27T19:42:17.680Z,7.23
2018-04-27T19:44:44.979Z,6.93
2018-04-27T19:47:12.162Z,7.37
2018-04-27T19:49:39.707Z,6.37
2018-04-27T19:52:06.601Z,7.07
2018-04-27T19:54:33.489Z,6.97
2018-04-27T19:57:00.577Z,8.03
2018-04-27T19:59:27.805Z,7.27
2018-04-27T20:01:54.845Z,7.67
2018-04-27T20:04:22.292Z,7.40
2018-04-27T20:06:49.358Z,6.90
2018-04-27T20:09:16.181Z,7.27
2018-04-27T20:11:42.889Z,7.30
2018-04-27T20:14:10.245Z,7.17
2018-04-27T20:16:38.477Z,8.03
2018-04-27T20:19:06.206Z,8.43
2018-04-27T20:21:33.503Z,9.17
2018-04-27T20:24:03.452Z,7.47
2018-04-27T20:26:30.212Z,8.43
2018-04-27T20:28:57.629Z,7.53
2018-04-27T20:31:24.457Z,8.27
2018-04-27T20:33:51.303Z,8.20
2018-04-27T20:36:18.619Z,8.50
2018-04-27T20:38:45.392Z,7.83
2018-04-27T20:41:12.482Z,8.10
2018-04-27T20:43:40.605Z,8.23
2018-04-27T20:46:08.721Z,7.63
2018-04-27T20:48:35.637Z,8.50
2018-04-27T20:51:03.201Z,8.50
2018-04-27T20:53:38.180Z,7.90
2018-04-27T20:56:05.006Z,7.80
2018-04-27T20:58:31.727Z,7.90
2018-04-27T21:00:58.593Z,8.00
2018-04-27T21:03:25.333Z,8.50
2018-04-27T21:05:51.875Z,7.83
2018-04-27T21:08:18.336Z,8.07
2018-04-27T21:10:44.872Z,8.57
2018-04-27T21:13:11.351Z,8.40
2018-04-27T21:15:38.535Z,8.93
2018-04-27T21:18:05.036Z,9.13
2018-04-27T21:20:31.592Z,8.37
2018-04-27T21:22:58.002Z,7.80
2018-04-27T21:25:29.361Z,8.47
2018-04-27T21:27:56.183Z,8.00
2018-04-27T21:30:22.808Z,8.10
2018-04-27T21:32:49.492Z,8.53
2018-04-27T21:35:16.002Z,8.80
2018-04-27T21:37:44.381Z,8.57
2018-04-27T21:40:11.008Z,9.30
2018-04-27T21:42:37.735Z,9.37
2018-04-27T21:45:05.282Z,9.20
2018-04-27T21:47:40.755Z,8.63
2018-04-27T21:50:08.569Z,9.17
2018-04-27T21:52:37.660Z,8.47
2018-04-27T21:55:06.663Z,8.77
2018-04-27T21:57:37.804Z,10.00
2018-04-27T22:03:04.778Z,9.47
2018-04-27T22:05:47.955Z,10.33
2018-04-27T22:08:16.456Z,10.07
2018-04-27T22:10:43.073Z,9.57
2018-04-27T22:13:09.505Z,9.70
2018-04-27T22:15:35.958Z,11.13
2018-04-27T22:18:07.173Z,10.40
2018-04-27T22:20:34.458Z,8.80
2018-04-27T22:23:00.952Z,9.63
2018-04-27T22:25:28.203Z,9.43
2018-04-27T22:27:56.488Z,9.93
2018-04-27T22:30:28.807Z,8.67
2018-04-27T22:32:55.290Z,9.53
2018-04-27T22:35:21.785Z,9.43
2018-04-27T22:37:51.412Z,9.03
2018-04-27T22:40:21.674Z,10.00
2018-04-27T22:42:48.187Z,9.30
2018-04-27T22:45:16.667Z,8.80
2018-04-27T22:47:43.083Z,9.03
2018-04-27T22:50:09.645Z,9.00
2018-04-27T22:52:40.004Z,9.60
2018-04-27T22:55:11.196Z,9.80
2018-04-27T22:57:38.614Z,9.33
2018-04-27T23:00:06.075Z,9.83
2018-04-27T23:02:32.520Z,9.90
2018-04-27T23:08:07.992Z,9.33
2018-04-27T23:10:45.390Z,10.57
2018-04-27T23:13:18.895Z,10.63
2018-04-27T23:15:45.325Z,10.90
2018-04-27T23:18:11.746Z,10.33
2018-04-27T23:20:38.331Z,9.80
2018-04-27T23:23:05.837Z,10.53
2018-04-27T23:25:34.154Z,9.60
2018-04-27T23:28:00.627Z,10.17
2018-04-27T23:30:36.574Z,9.90
2018-04-27T23:33:03.110Z,10.03
2018-04-27T23:35:29.483Z,10.60
2018-04-27T23:37:55.949Z,9.60
2018-04-27T23:40:22.752Z,9.53
2018-04-27T23:42:49.600Z,9.80
2018-04-27T23:45:19.057Z,10.87
2018-04-27T23:47:47.504Z,10.30
2018-04-27T23:50:16.541Z,9.50
2018-04-27T23:52:43.558Z,11.17
2018-04-27T23:55:10.063Z,10.40
2018-04-27T23:57:36.824Z,9.70
